Data for 08/10/2008

Time Sea-Level Adjusted Pressure Absolute Pressure Temperature Relative Humidity Dew Point   
(mb) (inHg) (mb) (inHg) (C) (F) (%) (C) (F)
00:05 1018 30.06 848 25.04 19.4 66.8 51 9.1 48.3
00:10 1019 30.09 848 25.04 19.2 66.5 52 9.3 48.8
00:15 1019 30.09 848 25.04 18.8 65.8 53 9.1 48.4
00:20 1019 30.09 848 25.04 18.7 65.6 54 9.2 48.6
00:25 1019 30.09 848 25.04 18.6 65.5 55 9.6 49.2
00:30 1019 30.09 848 25.04 18.4 65 58 10 50
00:35 1019 30.09 848 25.04 18.1 64.6 58 9.9 49.8
00:40 1019 30.09 848 25.04 17.8 64.1 57 9.4 48.9
00:45 1019 30.09 848 25.04 17.8 64 56 8.9 48
00:50 1019 30.09 848 25.04 17.9 64.2 56 9.1 48.5
00:55 1019 30.09 848 25.04 17.9 64.2 57 9.4 49
01:00 1019 30.09 848 25.04 17.8 64 59 9.9 49.7
01:05 1019 30.09 848 25.04 17.5 63.5 61 10.1 50.2
01:10 1019 30.09 848 25.04 17 62.6 66 10.8 51.4
01:15 1019 30.09 848 25.04 16.4 61.6 67 10.3 50.5
01:20 1018 30.06 848 25.04 16.7 62.1 65 10.1 50.3
01:25 1019 30.09 848 25.04 16.7 62.1 66 10.4 50.7
01:30 1019 30.09 848 25.04 16.7 62 64 9.8 49.7
01:35 1019 30.09 848 25.04 16.6 61.9 65 10.1 50.1
01:40 1019 30.09 848 25.04 16.4 61.5 66 10.2 50.3
01:45 1019 30.09 848 25.04 16.3 61.3 67 10.2 50.4
01:50 1019 30.09 848 25.04 16.1 61 68 10.2 50.3
01:55 1019 30.09 848 25.04 15.8 60.5 69 10.1 50.2
02:00 1019 30.09 848 25.04 15.9 60.6 70 10.5 50.8
02:05 1019 30.09 848 25.04 16 60.7 70 10.5 50.8
02:10 1019 30.09 848 25.04 15.8 60.4 69 10.2 50.3
02:15 1019 30.09 848 25.04 15.8 60.4 67 9.8 49.7
02:20 1019 30.09 848 25.04 15.8 60.5 67 9.7 49.5
02:25 1019 30.09 848 25.04 15.9 60.7 67 9.8 49.7
02:30 1019 30.09 848 25.04 15.8 60.4 67 9.8 49.6
02:35 1019 30.09 848 25.04 15.7 60.3 68 10 50
02:40 1019 30.09 848 25.04 15.7 60.3 68 9.8 49.7
02:45 1019 30.09 848 25.04 15.8 60.4 68 10 49.9
02:50 1019 30.09 848 25.04 15.8 60.4 68 9.9 49.9
02:55 1019 30.09 848 25.04 15.5 59.9 71 10.3 50.6
03:00 1019 30.09 848 25.04 15.1 59.2 72 10.2 50.3
03:05 1019 30.09 848 25.04 14.9 58.9 73 10.1 50.3
03:10 1019 30.09 848 25.04 14.6 58.3 76 10.5 51
03:15 1019 30.09 848 25.04 14.3 57.7 77 10.4 50.7
03:20 1019 30.09 848 25.04 14.1 57.3 78 10.3 50.6
03:25 1019 30.09 848 25.04 14 57.3 78 10.3 50.6
03:30 1019 30.09 848 25.04 14.1 57.3 77 10.2 50.3
03:35 1019 30.09 848 25.04 14.1 57.3 77 10.1 50.2
03:40 1019 30.09 848 25.04 14.1 57.4 77 10.2 50.3
03:45 1019 30.09 848 25.04 14 57.2 77 10.1 50.2
03:50 1019 30.09 848 25.04 13.9 56.9 79 10.2 50.4
03:55 1019 30.09 848 25.04 13.7 56.7 79 10.1 50.2
04:00 1019 30.09 848 25.04 13.8 56.8 78 10.1 50.1
04:05 1019 30.09 848 25.04 13.9 56.9 78 10 50.1
04:10 1019 30.09 848 25.04 14 57.1 77 10.1 50.1
04:15 1019 30.09 848 25.04 13.9 57 77 10 49.9
04:20 1019 30.09 848 25.04 13.9 57 78 10.1 50.2
04:25 1019 30.09 848 25.04 13.8 56.8 78 10.1 50.1
04:30 1019 30.09 848 25.04 13.6 56.5 79 10 50.1
04:35 1019 30.09 848 25.04 13.5 56.2 80 10 50
04:40 1019 30.09 848 25.04 13.4 56.1 80 10.1 50.1
04:45 1019 30.09 848 25.04 13.3 55.9 80 9.9 49.9
04:50 1019 30.09 848 25.04 13.3 56 79 9.8 49.6
04:55 1019 30.09 848 25.04 13.4 56.1 80 10.1 50.1
05:00 1019 30.09 848 25.04 13.3 55.9 80 10 50.1
05:05 1019 30.09 848 25.04 13 55.4 82 10.1 50.2
05:10 1019 30.09 848 25.04 12.8 55.1 82 9.9 49.8
05:15 1019 30.09 848 25.04 12.8 55 83 9.9 49.9
05:20 1019 30.09 848 25.04 12.7 54.9 83 9.9 49.8
05:25 1019 30.09 848 25.04 12.7 54.9 83 9.9 49.9
05:30 1019 30.09 848 25.04 12.6 54.8 83 9.9 49.9
05:35 1019 30.09 849 25.07 12.7 54.8 84 10 50
05:40 1019 30.09 848 25.04 12.5 54.5 85 10 50
05:45 1019 30.09 848 25.04 12.5 54.6 84 9.9 49.8
05:50 1019 30.09 848 25.04 12.6 54.7 83 9.8 49.7
05:55 1019 30.09 849 25.07 12.6 54.6 82 9.6 49.3
06:00 1019 30.09 849 25.07 12.8 55 82 9.8 49.6
06:05 1019 30.09 849 25.07 12.6 54.7 83 9.9 49.8
06:10 1019 30.09 849 25.07 12.4 54.3 84 9.8 49.6
06:15 1019 30.09 849 25.07 12.4 54.3 84 9.8 49.6
06:20 1019 30.09 849 25.07 12.3 54.2 84 9.7 49.4
06:25 1019 30.09 849 25.07 12.3 54.2 84 9.6 49.4
06:30 1019 30.09 848 25.04 12.3 54.2 83 9.6 49.3
06:35 1019 30.09 848 25.04 12.4 54.3 83 9.5 49.1
06:40 1019 30.09 848 25.04 12.5 54.5 82 9.5 49.2
06:45 1019 30.09 848 25.04 12.5 54.4 83 9.6 49.3
06:50 1019 30.09 848 25.04 12.5 54.5 82 9.5 49.1
06:55 1019 30.09 848 25.04 12.5 54.6 82 9.5 49.2
07:00 1019 30.09 848 25.04 12.6 54.6 82 9.5 49.1
07:05 1019 30.09 848 25.04 12.7 54.9 81 9.5 49.1
07:10 1019 30.09 848 25.04 12.7 54.9 81 9.7 49.4
07:15 1019 30.09 848 25.04 12.7 54.8 82 9.8 49.6
07:20 1019 30.09 848 25.04 12.6 54.7 82 9.7 49.5
07:25 1019 30.09 848 25.04 12.7 54.8 81 9.5 49.2
07:30 1019 30.09 848 25.04 12.9 55.3 79 9.4 48.9
07:35 1019 30.09 848 25.04 13.2 55.8 79 9.6 49.3
07:40 1019 30.09 848 25.04 13.4 56.2 76 9.4 48.9
07:45 1019 30.09 848 25.04 13.8 56.9 75 9.6 49.3
07:50 1019 30.09 848 25.04 14 57.2 75 9.7 49.5
07:55 1019 30.09 848 25.04 14.1 57.4 74 9.6 49.3
08:00 1019 30.09 848 25.04 14.2 57.5 74 9.6 49.3
08:05 1019 30.09 848 25.04 14.3 57.8 74 9.8 49.7
08:10 1019 30.09 848 25.04 14.3 57.8 73 9.7 49.4
08:15 1019 30.09 848 25.04 14.5 58.1 74 9.9 49.8
08:20 1019 30.09 848 25.04 14.7 58.4 73 9.9 49.9
08:25 1019 30.09 848 25.04 14.9 58.8 71 9.8 49.6
08:30 1019 30.09 848 25.04 15 58.9 70 9.5 49.1
08:35 1019 30.09 848 25.04 15.2 59.3 70 9.8 49.7
08:40 1019 30.09 848 25.04 15.3 59.5 70 9.9 49.9
08:45 1019 30.09 848 25.04 15.5 59.8 71 10.2 50.4
08:50 1019 30.09 848 25.04 15.8 60.4 70 10.3 50.5
08:55 1019 30.09 848 25.04 16.4 61.4 67 10.3 50.6
09:00 1019 30.09 848 25.04 16.7 62 67 10.7 51.2
09:05 1019 30.09 848 25.04 16.7 62 70 11.2 52.2
09:10 1019 30.09 848 25.04 16.5 61.7 69 10.9 51.7
09:15 1019 30.09 848 25.04 16.7 62 69 10.9 51.7
09:20 1019 30.09 848 25.04 16.9 62.3 68 10.9 51.7
09:25 1019 30.09 848 25.04 16.8 62.2 67 10.7 51.3
09:30 1019 30.09 848 25.04 16.9 62.5 68 11 51.9
09:35 1019 30.09 848 25.04 17.2 62.9 67 11 51.7
09:40 1019 30.09 848 25.04 17.3 63.1 66 10.8 51.5
09:45 1019 30.09 848 25.04 17.4 63.3 67 11.3 52.4
09:50 1019 30.09 848 25.04 17.9 64.2 66 11.5 52.7
09:55 1019 30.09 848 25.04 17.8 64 66 11.4 52.5
10:00 1019 30.09 848 25.04 18.1 64.5 64 11.2 52.1
10:05 1019 30.09 848 25.04 19 66.2 60 11.1 51.9
10:10 1019 30.09 848 25.04 19.2 66.5 60 11.4 52.5
10:15 1019 30.09 848 25.04 19.9 67.8 58 11.4 52.4
10:20 1019 30.09 848 25.04 19.9 67.8 59 11.8 53.3
10:25 1019 30.09 848 25.04 19.9 67.7 57 11.3 52.4
10:30 1019 30.09 848 25.04 20.6 69 55 11.3 52.3
10:35 1019 30.09 848 25.04 20.7 69.2 56 11.7 53
10:40 1019 30.09 848 25.04 20.7 69.2 55 11.5 52.8
10:45 1019 30.09 848 25.04 21 69.8 53 11.3 52.3
10:50 1019 30.09 848 25.04 21.6 71 52 11.5 52.7
10:55 1019 30.09 848 25.04 21.1 69.9 56 12.1 53.8
11:00 1019 30.09 848 25.04 20.8 69.4 56 11.8 53.2
11:05 1019 30.09 848 25.04 21.1 70 54 11.6 52.9
11:10 1019 30.09 848 25.04 21.3 70.4 53 11.5 52.7
11:15 1019 30.09 848 25.04 22.1 71.8 53 12.1 53.8
11:20 1018 30.06 848 25.04 22.2 71.9 49 11 51.8
11:25 1018 30.06 848 25.04 22 71.5 51 11.5 52.6
11:30 1018 30.06 847 25.01 22.6 72.7 49 11.4 52.5
11:35 1018 30.06 847 25.01 22.8 73 46 10.6 51.1
11:40 1018 30.06 847 25.01 23.2 73.7 45 10.8 51.5
11:45 1018 30.06 847 25.01 23.5 74.3 50 12.6 54.6
11:50 1018 30.06 847 25.01 24 75.1 46 11.7 53.1
11:55 1018 30.06 847 25.01 23.7 74.6 48 12.2 54
12:00 1018 30.06 847 25.01 23.7 74.6 51 13 55.4
12:05 1018 30.06 847 25.01 23.3 73.9 50 12.5 54.4
12:10 1018 30.06 847 25.01 24.1 75.3 46 12 53.5
12:15 1018 30.06 847 25.01 24 75.2 47 12.3 54.2
12:20 1018 30.06 847 25.01 24.3 75.7 46 12.2 53.9
12:25 1018 30.06 847 25.01 24.1 75.3 47 12.2 54
12:30 1018 30.06 847 25.01 25.2 77.4 41 11.2 52.1
12:35 1018 30.06 847 25.01 25.5 77.8 43 12.3 54.1
12:40 1018 30.06 847 25.01 25.7 78.3 41 11.8 53.2
12:45 1018 30.06 847 25.01 26 78.7 40 11.6 53
12:50 1018 30.06 847 25.01 26.4 79.5 38 11.2 52.2
12:55 1018 30.06 847 25.01 26.7 80 37 11.2 52.2
13:00 1018 30.06 847 25.01 27 80.7 37 11.4 52.5
13:05 1018 30.06 847 25.01 27.4 81.4 37 11.9 53.3
13:10 1017 30.03 847 25.01 26.8 80.2 38 11.7 53.1
13:15 1017 30.03 847 25.01 26.5 79.7 36 10.6 51.2
13:20 1017 30.03 847 25.01 26.2 79.2 37 10.7 51.2
13:25 1017 30.03 846 24.98 26.1 79 37 10.6 51.2
13:30 1017 30.03 846 24.98 26.8 80.3 33 9.5 49.1
13:35 1017 30.03 846 24.98 27.2 81 32 9.5 49.2
13:40 1017 30.03 846 24.98 26.8 80.2 38 11.3 52.4
13:45 1017 30.03 846 24.98 26.4 79.5 35 10.1 50.2
13:50 1017 30.03 846 24.98 26.7 80 36 10.6 51.1
13:55 1017 30.03 846 24.98 26.2 79.1 37 10.5 51
14:00 1017 30.03 846 24.98 25.9 78.7 31 7.7 45.9
14:05 1017 30.03 846 24.98 26.1 79 33 8.7 47.6
14:10 1017 30.03 846 24.98 26.4 79.4 32 8.7 47.7
14:15 1017 30.03 846 24.98 26.9 80.4 24 5.1 41.1
14:20 1017 30.03 846 24.98 27.3 81.2 28 7.5 45.5
14:25 1017 30.03 846 24.98 27.9 82.2 22 4.7 40.5
14:30 1017 30.03 846 24.98 28 82.3 24 5.7 42.2
14:35 1017 30.03 846 24.98 28.9 84.1 21 4.6 40.2
14:40 1016 30 846 24.98 28.7 83.6 23 5.6 42.1
14:45 1017 30.03 846 24.98 28.3 82.9 22 4.9 40.8
14:50 1016 30 846 24.98 28.8 83.9 22 5.6 42.1
14:55 1016 30 846 24.98 28.8 83.9 25 6.9 44.4
15:00 1016 30 846 24.98 27.9 82.2 26 6.8 44.3
15:05 1016 30 846 24.98 27 80.7 27 6.6 43.8
15:10 1016 30 846 24.98 25.1 77.2 27 5.1 41.1
15:15 1016 30 846 24.98 24.2 75.6 30 5.8 42.4
15:20 1017 30.03 846 24.98 23.8 74.9 26 3.4 38
15:25 1017 30.03 846 24.98 23.8 74.8 27 3.8 38.8
15:30 1017 30.03 846 24.98 23.5 74.2 27 3.6 38.5
15:35 1018 30.06 847 25.01 23 73.4 29 4 39.3
15:40 1018 30.06 847 25.01 22.5 72.4 37 7.1 44.8
15:45 1017 30.03 847 25.01 21 69.7 39 6.7 44
15:50 1017 30.03 847 25.01 21.2 70.2 43 8.4 47
15:55 1017 30.03 846 24.98 21.7 71 41 8.1 46.6
16:00 1017 30.03 846 24.98 22.1 71.8 37 7.1 44.7
16:05 1017 30.03 846 24.98 22.7 72.8 40 8.4 47.2
16:10 1017 30.03 846 24.98 22.7 72.9 39 8.4 47.1
16:15 1017 30.03 846 24.98 22.1 71.8 49 11 51.8
16:20 1017 30.03 846 24.98 21 69.8 47 9.5 49.1
16:25 1017 30.03 846 24.98 21.3 70.3 42 7.9 46.2
16:30 1017 30.03 846 24.98 21.6 70.8 47 10 50.1
16:35 1017 30.03 846 24.98 21.2 70.2 47 9.5 49.1
16:40 1017 30.03 846 24.98 21 69.7 47 9.4 48.9
16:45 1016 30 846 24.98 21 69.8 45 8.9 48
16:50 1017 30.03 846 24.98 21.2 70.2 45 9 48.2
16:55 1017 30.03 846 24.98 21.2 70.2 51 11 51.7
17:00 1017 30.03 846 24.98 21.1 69.9 50 10.5 50.9
17:05 1017 30.03 846 24.98 20.5 69 55 11.4 52.6
17:10 1017 30.03 846 24.98 20.2 68.4 55 11.1 52
17:15 1017 30.03 846 24.98 20.5 68.8 49 9.5 49.1
17:20 1017 30.03 846 24.98 21.3 70.3 39 7 44.6
17:25 1017 30.03 846 24.98 21.8 71.2 35 5.9 42.6
17:30 1017 30.03 846 24.98 22.5 72.5 30 4.4 39.8
17:35 1017 30.03 846 24.98 22.6 72.7 28 3.3 38
17:40 1016 30 846 24.98 22.8 73 28 3.5 38.3
17:45 1016 30 845 24.95 22.9 73.3 30 4.8 40.7
17:50 1016 30 845 24.95 22.6 72.7 32 5.4 41.6
17:55 1017 30.03 846 24.98 22.3 72.2 34 5.8 42.4
18:00 1017 30.03 846 24.98 22 71.7 31 4.5 40
18:05 1017 30.03 846 24.98 22.1 71.7 26 1.7 35
18:10 1016 30 846 24.98 22.9 73.2 26 2.5 36.5
18:15 1016 30 845 24.95 23 73.3 28 3.5 38.3
18:20 1016 30 845 24.95 22.7 72.9 30 4.4 39.9
18:25 1016 30 845 24.95 22.6 72.7 31 4.7 40.5
18:30 1016 30 845 24.95 22.2 72 32 5.2 41.3
18:35 1016 30 845 24.95 21.7 71 35 5.7 42.3
18:40 1016 30 845 24.95 21.3 70.3 38 6.4 43.6
18:45 1016 30 845 24.95 21 69.8 39 6.7 44.1
18:50 1016 30 845 24.95 20.8 69.4 39 6.3 43.4
18:55 1016 30 845 24.95 20.8 69.5 39 6.4 43.5
19:00 1016 30 845 24.95 20.7 69.2 41 7.2 45
19:05 1015 29.97 845 24.95 20.4 68.7 40 6.7 44
19:10 1015 29.97 845 24.95 20.3 68.6 42 7.2 45
19:15 1016 30 845 24.95 20 68 45 7.7 45.9
19:20 1016 30 845 24.95 20 68 43 7.1 44.8
19:25 1016 30 845 24.95 19.9 67.8 44 7.6 45.6
19:30 1016 30 845 24.95 19.8 67.6 45 7.5 45.5
19:35 1015 29.97 844 24.92 19.8 67.6 41 6.4 43.6
19:40 1015 29.97 844 24.92 20 67.9 42 6.7 44
19:45 1015 29.97 844 24.92 20 68.1 44 7.6 45.6
19:50 1015 29.97 845 24.95 19.8 67.6 45 7.8 46
19:55 1016 30 845 24.95 19.7 67.5 45 7.7 45.9
20:00 1015 29.97 845 24.95 19.7 67.5 45 7.5 45.5
20:05 1015 29.97 844 24.92 19.8 67.6 43 6.9 44.4
20:10 1015 29.97 844 24.92 19.9 67.8 43 7.1 44.8
20:15 1015 29.97 845 24.95 19.8 67.7 42 6.7 44.1
20:20 1015 29.97 845 24.95 19.8 67.7 42 6.8 44.2
20:25 1016 30 845 24.95 19.7 67.5 45 7.5 45.4
20:30 1016 30 845 24.95 19.4 67 48 8.2 46.8
20:35 1016 30 845 24.95 19.3 66.7 46 7.4 45.3
20:40 1016 30 845 24.95 19.3 66.7 47 7.9 46.3
20:45 1016 30 846 24.98 19.1 66.4 49 8.2 46.7
20:50 1017 30.03 846 24.98 19.1 66.4 44 6.8 44.3
20:55 1017 30.03 846 24.98 20 68 40 6.3 43.3
21:00 1017 30.03 846 24.98 20.3 68.5 40 6.4 43.5
21:05 1017 30.03 846 24.98 20.3 68.6 39 6.1 43
21:10 1017 30.03 846 24.98 20.3 68.5 41 6.7 44.1
21:15 1017 30.03 846 24.98 20 67.9 40 5.9 42.7
21:20 1017 30.03 846 24.98 19.9 67.8 38 5.1 41.3
21:25 1017 30.03 846 24.98 19.9 67.8 38 5.2 41.3
21:30 1017 30.03 846 24.98 19.8 67.7 38 5.2 41.4
21:35 1017 30.03 847 25.01 19.7 67.5 38 5.3 41.6
21:40 1018 30.06 847 25.01 19.5 67.1 40 5.8 42.4
21:45 1018 30.06 847 25.01 19.1 66.3 42 5.9 42.7
21:50 1018 30.06 847 25.01 18.7 65.7 44 6.3 43.4
21:55 1018 30.06 847 25.01 18.4 65.1 47 7 44.6
22:00 1018 30.06 847 25.01 18.1 64.6 49 7.4 45.3
22:05 1018 30.06 847 25.01 17.8 64 50 7.2 45
22:10 1018 30.06 847 25.01 17.7 63.9 51 7.6 45.6
22:15 1018 30.06 848 25.04 17.7 63.8 49 7.1 44.7
22:20 1019 30.09 848 25.04 17.7 63.8 50 7.3 45.2
22:25 1019 30.09 848 25.04 17.4 63.2 51 7.1 44.8
22:30 1019 30.09 848 25.04 17.2 63 50 6.9 44.5
22:35 1019 30.09 848 25.04 17 62.7 52 7.3 45.2
22:40 1019 30.09 848 25.04 16.7 62.1 53 7.1 44.8
22:45 1019 30.09 848 25.04 16.7 62.1 54 7.5 45.5
22:50 1019 30.09 848 25.04 16.5 61.7 55 7.7 45.8
22:55 1019 30.09 848 25.04 16.5 61.7 55 7.7 45.8
23:00 1019 30.09 848 25.04 16.3 61.4 57 7.8 46
23:05 1019 30.09 848 25.04 16.2 61.2 56 7.6 45.8
23:10 1019 30.09 848 25.04 16.3 61.3 55 7.3 45.1
23:15 1019 30.09 848 25.04 16.4 61.6 54 7.2 45
23:20 1019 30.09 848 25.04 16.5 61.7 55 7.5 45.6
23:25 1019 30.09 848 25.04 16.5 61.7 56 7.8 46
23:30 1019 30.09 848 25.04 16.5 61.6 54 7.3 45.1
23:35 1019 30.09 848 25.04 16.7 62 52 6.9 44.4
23:40 1019 30.09 848 25.04 16.9 62.4 52 7.1 44.8
23:45 1019 30.09 848 25.04 17 62.5 52 7.1 44.7
23:50 1019 30.09 848 25.04 17 62.6 50 6.5 43.8
23:55 1019 30.09 848 25.04 17.2 63 51 7.2 45
24:00 1019 30.09 848 25.04 16.8 62.2 53 7.2 45